Ottawa Macdonald-Cartier International Airport
CYOW : now visible

Airfield :











YOU CAN JOIN US ON...

 
LOGIN :

Register | Disclaimer

   EN    FR    IT 

 









Legend :    VFR   Marginal VFR   IFR   Intensive IFR   Very Intensive IFR
Visi :
Ceiling :
>= 8 km
>= 3000ft
5 to 8 km
1000 to 3000 ft
1500m to 5 km
500 to 1000 ft
800 to 1500m
200 to 500 ft
< 800m
< 200 ft
Symbols :   Thunderstorms  Fog  Heavy snow  Heavy precipitations  Wind > 20 kt






- Airport Elevation : 374 ft
- IATA code : YOW


CYOW - Ottawa Macdonald-Cartier International

CURRENT METAR :
  • 282100Z 33012KT 15SM OVC013 M04/M06 A2991 RMK SC8 SLP136

EXPIRED METARs :
  • 282000Z 32011KT 15SM OVC016 M04/M06 A2989 RMK SC8 SLP131

TAF TAF CYOW
Valid from the 28 at 21:00 until the 29 at 18:00 UTC


282038Z 2821/2918 32012KT P6SM OVC025
TEMPO 2821/2823 P6SM -FZDZ OVC015
FM282300 32008KT P6SM OVC020
TEMPO 2823/2903 BKN025
FM290300 32008KT P6SM FEW030 RMK NXT FCST BY 290000Z



MET'MAP, your aeronautical weather chart ! - Copyright ORBIFLY December 2007 - Disclaimer

ORBIFLY MET'MAP TEAM :

Programming & Development : Alexandra Zaïnal
Concept & original design : Baudouin d'Aumeries
Assistance for programming : Marc-Olivier Méhu
Technical & hardware support : Manuel Goepfert

Contact : metmap@orbifly.com




SOURCES & CREDITS :

   NOAA       Earth
Advisory